Opportunity — WDJ5813 — position and weather

sailwx.info

Track history (hours):
 
Tides and Currents Weather Stations Pressure Air Temp Water Temp Dewpoint Dewpoint Depression Visibility Wind Speed Wind Dir Waves Ship Positions

Opportunity

Owner: HNY Ferry Fleet LLC, New York, NY. More information available from US FCC via Universal Licensing System and Coast Guard Vessel Documentation Center.

Last reported at 2018-Jun-25 02:03 UTC. Time now 2018-Jun-25 05:55 UTC.
Position N 40°42' W 073°58'.

Length 26 m; draft 2 m.

Type: Passenger vessel. MMSI: 367791540.

Date/timePositionNaut miles runAvg speedWind from/ knotsBaromVisibWave heightAir tempDewpointWater temp
2018-Jun-25 02:03N 40°42' W 073°58'0 0.1
2018-Jun-25 02:01N 40°42' W 073°58'1 2.9
2018-Jun-25 01:30N 40°42' W 074°00'916.2
2018-Jun-25 00:59N 40°34' W 073°58'610.4
2018-Jun-25 00:25N 40°35' W 073°50'921.1
2018-Jun-25 00:01N 40°35' W 074°01'612.2
2018-Jun-24 23:30N 40°41' W 074°01'1 2.3
2018-Jun-24 23:00N 40°42' W 074°00'917.3
2018-Jun-24 22:30N 40°34' W 073°57'6 8.9
2018-Jun-24 21:53N 40°35' W 073°50'822.4
2018-Jun-24 21:30N 40°35' W 074°01'612.9
2018-Jun-24 21:00N 40°41' W 074°01'1 2.8
2018-Jun-24 20:30N 40°42' W 074°00'916.6
2018-Jun-24 20:00N 40°34' W 073°58'610.3
2018-Jun-24 19:25N 40°35' W 073°50'921.1
2018-Jun-24 19:00N 40°35' W 074°01'713.4
2018-Jun-24 18:31N 40°42' W 074°00'1 0.9
2018-Jun-24 17:53N 40°42' W 074°00'820.7
2018-Jun-24 17:30N 40°34' W 073°59'5 7.2
2018-Jun-24 16:48N 40°35' W 073°52'723.3
2018-Jun-24 16:29N 40°35' W 074°02'612.0
2018-Jun-24 16:01N 40°41' W 074°01'1 2.4
2018-Jun-24 15:31N 40°42' W 074°00'10 7.5
2018-Jun-24 14:13N 40°35' W 073°52'524.4
2018-Jun-24 14:00N 40°34' W 073°59'816.7
2018-Jun-24 13:30N 40°42' W 074°00'1 0.1
2018-Jun-24 01:55N 40°42' W 073°58'2 3.7
2018-Jun-24 01:30N 40°42' W 074°00'915.5
2018-Jun-24 00:57N 40°34' W 073°57'4 6.0
2018-Jun-24 00:18N 40°35' W 073°52'722.9
2018-Jun-24 00:00N 40°35' W 074°01'713.7
2018-Jun-23 23:31N 40°41' W 074°01'1 1.6
2018-Jun-23 23:00N 40°42' W 074°00'915.7
2018-Jun-23 22:26N 40°34' W 073°56'3 4.4
2018-Jun-23 21:50N 40°35' W 073°52'722.2
2018-Jun-23 21:31N 40°35' W 074°02'612.2
2018-Jun-23 21:00N 40°41' W 074°01'1 2.0
2018-Jun-23 20:31N 40°42' W 074°00'916.4
2018-Jun-23 19:59N 40°34' W 073°57'4 6.0
2018-Jun-23 19:20N 40°35' W 073°52'722.0
2018-Jun-23 19:00N 40°36' W 074°02'713.4
2018-Jun-23 18:30N 40°42' W 074°00'0 0.4
2018-Jun-23 18:00N 40°42' W 074°00'917.6
2018-Jun-23 17:30N 40°34' W 073°56'3 4.7
2018-Jun-23 16:52N 40°35' W 073°52'719.5
2018-Jun-23 16:30N 40°35' W 074°02'713.7
2018-Jun-23 16:00N 40°41' W 074°02'1 2.4
2018-Jun-23 15:30N 40°40' W 074°03'815.5
2018-Jun-23 14:58N 40°34' W 073°56'5 7.9
2018-Jun-23 14:23N 40°35' W 073°50'512.8
2018-Jun-23 14:00N 40°34' W 073°56'917.6
2018-Jun-23 13:31N 40°42' W 074°02'2 4.9
2018-Jun-23 13:00N 40°42' W 073°58'0 0.0
2018-Jun-22 23:58N 40°42' W 073°58'1 3.2
2018-Jun-22 23:30N 40°42' W 074°00'915.0
2018-Jun-22 22:54N 40°34' W 073°55'2 3.9
2018-Jun-22 22:26N 40°34' W 073°53'818.7
2018-Jun-22 22:00N 40°37' W 074°03'4 8.7
2018-Jun-22 21:31N 40°41' W 074°01'815.9
2018-Jun-22 20:59N 40°34' W 073°55'3 5.6
2018-Jun-22 20:29N 40°35' W 073°52'918.0
2018-Jun-22 20:00N 40°37' W 074°03'4 8.3
2018-Jun-22 19:31N 40°41' W 074°01'816.1
2018-Jun-22 18:59N 40°34' W 073°54'2 3.2
2018-Jun-22 18:30N 40°35' W 073°53'817.0
2018-Jun-22 18:00N 40°38' W 074°03'5 9.3
2018-Jun-22 17:31N 40°42' W 074°00'1 2.9
2018-Jun-22 17:00N 40°42' W 073°58'0 0.0
2018-Jun-22 16:30N 40°42' W 073°58'2 3.1
2018-Jun-22 16:01N 40°42' W 074°00'2 3.0
2018-Jun-22 15:30N 40°42' W 073°58'0 0.0
2018-Jun-22 00:38N 40°42' W 073°58'0 1.1
2018-Jun-22 00:30N 40°42' W 073°58'3 6.1
2018-Jun-22 00:01N 40°40' W 074°01'814.8
2018-Jun-21 23:29N 40°34' W 073°56'1 2.9
2018-Jun-21 23:00N 40°34' W 073°54'714.8
2018-Jun-21 22:31N 40°39' W 074°02'0 0.4
2018-Jun-21 22:01N 40°39' W 074°02'713.7
2018-Jun-21 21:30N 40°34' W 073°55'1 1.3
2018-Jun-21 20:58N 40°34' W 073°56'714.5
2018-Jun-21 20:31N 40°39' W 074°02'1 1.3
2018-Jun-21 20:01N 40°39' W 074°01'714.1
2018-Jun-21 19:29N 40°34' W 073°55'1 1.1
2018-Jun-21 19:00N 40°34' W 073°55'714.1
2018-Jun-21 18:30N 40°39' W 074°02'1 1.7
2018-Jun-21 18:01N 40°40' W 074°01'814.5
2018-Jun-21 17:28N 40°34' W 073°54'1 2.2
2018-Jun-21 17:01N 40°34' W 073°55'714.1
2018-Jun-21 16:30N 40°39' W 074°02'0 0.2
2018-Jun-21 16:01N 40°39' W 074°02'713.7
2018-Jun-21 15:28N 40°34' W 073°54'1 1.1
2018-Jun-21 15:00N 40°34' W 073°54'815.2
2018-Jun-21 14:30N 40°39' W 074°02'1 1.7
2018-Jun-21 14:01N 40°40' W 074°01'713.4
2018-Jun-21 13:29N 40°34' W 073°56'2 3.2
2018-Jun-21 12:58N 40°34' W 073°54'715.9
2018-Jun-21 12:30N 40°39' W 074°02'1 1.6
2018-Jun-21 12:01N 40°40' W 074°02'813.1
2018-Jun-21 11:25N 40°34' W 073°54'1 1.3
2018-Jun-21 10:59N 40°34' W 073°54'815.8
2018-Jun-21 10:30N 40°39' W 074°02'1 2.3
2018-Jun-21 10:01N 40°40' W 074°01'813.7
2018-Jun-21 09:27N 40°34' W 073°55'1 2.9
2018-Jun-21 09:00N 40°34' W 073°53'817.1
2018-Jun-21 08:30N 40°40' W 074°01'3 5.7
2018-Jun-21 08:01N 40°42' W 073°58'0 0.0
2018-Jun-21 07:31N 40°42' W 073°58'0 0.0
2018-Jun-21 02:34N 40°42' W 073°58'0 0.1
2018-Jun-21 02:30N 40°42' W 073°58'2 3.3
2018-Jun-21 02:01N 40°42' W 074°01'1011.8
2018-Jun-21 01:08N 40°35' W 073°50'319.9
2018-Jun-21 00:59N 40°34' W 073°54'815.7
2018-Jun-21 00:31N 40°39' W 074°02'1 2.8
2018-Jun-21 00:01N 40°40' W 074°01'814.0
2018-Jun-20 23:28N 40°34' W 073°56'3 5.7
2018-Jun-20 23:00N 40°34' W 073°53'815.9
2018-Jun-20 22:30N 40°39' W 074°02'0 0.8
2018-Jun-20 22:01N 40°39' W 074°02'8 8.9
2018-Jun-20 21:05N 40°35' W 073°53'222.8
2018-Jun-20 21:00N 40°34' W 073°55'714.0
2018-Jun-20 20:30N 40°39' W 074°02'1 1.8
2018-Jun-20 20:00N 40°40' W 074°01'814.0
2018-Jun-20 19:28N 40°34' W 073°54'0 1.1
2018-Jun-20 19:00N 40°34' W 073°54'815.1
2018-Jun-20 18:30N 40°39' W 074°02'0 0.5
2018-Jun-20 18:00N 40°39' W 074°02'714.0
2018-Jun-20 17:30N 40°34' W 073°55'0 0.8
2018-Jun-20 16:58N 40°34' W 073°56'714.4
2018-Jun-20 16:30N 40°39' W 074°02'4 8.1
2018-Jun-20 16:01N 40°42' W 073°59'1 1.5
2018-Jun-20 15:30N 40°42' W 073°58'1 1.9
2018-Jun-20 15:01N 40°42' W 073°60'3 5.9
2018-Jun-20 14:30N 40°45' W 073°57'1 1.3
2018-Jun-20 14:00N 40°45' W 073°57'4 8.3
2018-Jun-20 13:30N 40°42' W 074°00'4 7.1
2018-Jun-20 13:00N 40°45' W 073°57'0 0.9
2018-Jun-20 12:30N 40°45' W 073°57'4 8.0
2018-Jun-20 12:00N 40°42' W 074°00'4 8.0
2018-Jun-20 11:30N 40°45' W 073°57'3 6.9
2018-Jun-20 11:00N 40°42' W 073°58'0 0.0
2018-Jun-20 10:30N 40°42' W 073°58'0 0.8
2018-Jun-20 10:01N 40°42' W 073°59'3 5.6
2018-Jun-20 09:30N 40°43' W 074°02'0 0.0
2018-Jun-20 09:00N 40°43' W 074°02'0 0.1
2018-Jun-20 08:30N 40°43' W 074°03'1 1.0
2018-Jun-20 08:01N 40°43' W 074°02'0 0.2
2018-Jun-20 07:31N 40°43' W 074°02'3 5.2
2018-Jun-20 07:01N 40°42' W 073°58'0 0.0
2018-Jun-20 02:00N 40°42' W 073°58'0 0.3
2018-Jun-20 01:30N 40°42' W 073°58'4 7.5
2018-Jun-20 01:01N 40°39' W 074°01'813.1
2018-Jun-20 00:26N 40°34' W 073°54'1 2.6
2018-Jun-20 00:00N 40°35' W 073°53'816.2
2018-Jun-19 23:30N 40°39' W 074°02'1 1.6
2018-Jun-19 23:00N 40°40' W 074°01'813.6
2018-Jun-19 22:27N 40°34' W 073°54'1 1.3
2018-Jun-19 21:59N 40°34' W 073°55'714.6
2018-Jun-19 21:31N 40°39' W 074°02'1 2.8
2018-Jun-19 21:01N 40°40' W 074°01'8 7.8
2018-Jun-19 19:58N 40°34' W 073°54'716.0
2018-Jun-19 19:30N 40°39' W 074°02'0 0.6
2018-Jun-19 19:00N 40°39' W 074°02'814.1
2018-Jun-19 18:28N 40°34' W 073°54'0 0.9
2018-Jun-19 17:58N 40°34' W 073°54'816.1
2018-Jun-19 17:30N 40°39' W 074°02'1 2.7
2018-Jun-19 17:01N 40°40' W 074°01'814.1
2018-Jun-19 16:27N 40°34' W 073°55'0 0.1
2018-Jun-19 15:59N 40°34' W 073°55'714.9
2018-Jun-19 15:30N 40°39' W 074°02'1 2.9
2018-Jun-19 15:01N 40°40' W 074°01'814.6
2018-Jun-19 14:28N 40°34' W 073°55'1 1.6
2018-Jun-19 13:59N 40°34' W 073°54'715.6
2018-Jun-19 13:30N 40°39' W 074°02'1 2.1
2018-Jun-19 13:00N 40°40' W 074°01'714.0
2018-Jun-19 12:28N 40°34' W 073°55'1 1.8
2018-Jun-19 12:00N 40°34' W 073°54'815.4
2018-Jun-19 11:30N 40°39' W 074°02'1 1.3
2018-Jun-19 11:00N 40°39' W 074°01'813.5
2018-Jun-19 10:26N 40°34' W 073°54'0 0.1
2018-Jun-19 09:58N 40°34' W 073°54'817.2
2018-Jun-19 09:30N 40°40' W 074°01'3 6.1
2018-Jun-19 09:00N 40°42' W 073°58'0 0.0
2018-Jun-19 02:10N 40°42' W 073°58'1 3.2
2018-Jun-19 02:00N 40°42' W 073°59'916.6
2018-Jun-19 01:29N 40°34' W 073°57'3 5.8
2018-Jun-19 00:59N 40°34' W 073°54'815.7
2018-Jun-19 00:30N 40°39' W 074°02'1 1.7
2018-Jun-19 00:01N 40°40' W 074°01'8 8.8
2018-Jun-18 23:02N 40°35' W 073°52'124.6
2018-Jun-18 23:00N 40°34' W 073°54'815.3
2018-Jun-18 22:30N 40°39' W 074°02'1 2.0
2018-Jun-18 22:01N 40°40' W 074°01'813.4
2018-Jun-18 21:26N 40°34' W 073°54'1 1.2
2018-Jun-18 20:59N 40°34' W 073°54'815.1
2018-Jun-18 20:29N 40°39' W 074°02'1 3.1
2018-Jun-18 20:01N 40°40' W 074°01'913.9
2018-Jun-18 19:23N 40°34' W 073°53'1 3.2
2018-Jun-18 19:00N 40°34' W 073°54'714.5
2018-Jun-18 18:31N 40°39' W 074°02'1 2.9
2018-Jun-18 18:01N 40°40' W 074°01'714.4
2018-Jun-18 17:30N 40°34' W 073°56'3 5.6
2018-Jun-18 17:00N 40°34' W 073°53'816.0
2018-Jun-18 16:30N 40°39' W 074°02'4 7.2
2018-Jun-18 16:00N 40°42' W 074°00'2 0.3
2018-Jun-18 11:03N 40°42' W 073°58'0 1.1
2018-Jun-18 11:00N 40°42' W 073°58'0 0.0
2018-Jun-18 01:26N 40°42' W 073°58'0 0.3
2018-Jun-18 01:00N 40°42' W 073°58'3 6.5
2018-Jun-18 00:31N 40°40' W 074°01'9 8.4
2018-Jun-17 23:27N 40°35' W 073°52'919.6
2018-Jun-17 23:01N 40°38' W 074°02'4 8.3
2018-Jun-17 22:31N 40°42' W 074°00'2 4.4
2018-Jun-17 22:01N 40°40' W 074°01'815.9
2018-Jun-17 21:30N 40°34' W 073°54'1 2.5
2018-Jun-17 21:01N 40°35' W 073°52'816.6
2018-Jun-17 20:31N 40°39' W 074°02'4 6.7
2018-Jun-17 19:59N 40°42' W 074°00'3 6.3
2018-Jun-17 19:30N 40°39' W 074°02'7 5.5
2018-Jun-17 18:19N 40°34' W 073°57'620.0
2018-Jun-17 18:00N 40°38' W 074°02'4 5.5
2018-Jun-17 17:15N 40°42' W 074°00'2 9.0
2018-Jun-17 17:01N 40°40' W 074°01'6 5.0
2018-Jun-17 15:48N 40°34' W 074°00'514.5
2018-Jun-17 15:28N 40°39' W 074°02'4 6.3
2018-Jun-17 14:54N 40°42' W 074°00'1 1.3
2018-Jun-17 13:54N 40°42' W 073°58'0 0.0
2018-Jun-17 13:27N 40°42' W 073°58'0 0.0
2018-Jun-17 12:58N 40°42' W 073°58'0 0.0
2018-Jun-17 12:15N 40°42' W 073°58'0 0.0
2018-Jun-17 12:00N 40°42' W 073°58'0 0.0
2018-Jun-17 11:19N 40°42' W 073°58'0 0.0
2018-Jun-17 11:00N 40°42' W 073°58'0 0.0
2018-Jun-17 10:30N 40°42' W 073°58'0 0.0
2018-Jun-17 10:00N 40°42' W 073°58'0 0.0
2018-Jun-17 09:30N 40°42' W 073°58'0 0.0
2018-Jun-17 09:00N 40°42' W 073°58'0 0.0
2018-Jun-17 08:30N 40°42' W 073°58'0 0.0
2018-Jun-17 01:49N 40°42' W 073°58'0 0.5
2018-Jun-17 01:30N 40°42' W 073°58'4 8.6
2018-Jun-17 01:00N 40°39' W 074°02'8 6.2
2018-Jun-16 23:40N 40°35' W 073°52'426.1
2018-Jun-16 23:30N 40°34' W 073°58'817.1
2018-Jun-16 23:00N 40°42' W 074°00'4 7.1
2018-Jun-16 22:30N 40°39' W 074°02'1011.4
2018-Jun-16 21:40N 40°35' W 073°50'0 0.0
2018-Jun-16 21:30N 40°35' W 073°50'611.8
2018-Jun-16 21:00N 40°34' W 073°57'917.6
2018-Jun-16 20:30N 40°42' W 074°00'4 7.1
2018-Jun-16 20:00N 40°39' W 074°02'8 6.2
2018-Jun-16 18:41N 40°35' W 073°52'423.5
2018-Jun-16 18:30N 40°34' W 073°58'917.2
2018-Jun-16 18:00N 40°42' W 074°00'4 7.1
2018-Jun-16 17:30N 40°39' W 074°02'712.6
2018-Jun-16 16:58N 40°34' W 073°55'2 2.9
2018-Jun-16 16:08N 40°35' W 073°52'322.6
2018-Jun-16 16:00N 40°34' W 073°56'918.3
2018-Jun-16 15:30N 40°42' W 074°00'4 7.0
2018-Jun-16 15:00N 40°39' W 074°02'8 6.3
2018-Jun-16 13:44N 40°35' W 073°53'624.7
2018-Jun-16 13:29N 40°34' W 074°00'714.8
2018-Jun-16 13:01N 40°41' W 074°01'3 5.0
2018-Jun-16 12:31N 40°39' W 074°02'713.8
2018-Jun-16 12:00N 40°34' W 073°55'4 7.0
2018-Jun-16 11:28N 40°35' W 073°50'818.5
2018-Jun-16 11:00N 40°34' W 074°01'815.8
2018-Jun-16 10:31N 40°42' W 074°00'1 3.0
2018-Jun-16 10:00N 40°42' W 073°58'0 0.0
2018-Jun-16 00:35N 40°42' W 073°58'0 0.1
2018-Jun-16 00:30N 40°42' W 073°58'3 6.0
2018-Jun-16 00:00N 40°40' W 074°01'814.9
2018-Jun-15 23:30N 40°34' W 073°56'2 3.3
2018-Jun-15 23:00N 40°34' W 073°54'815.3
2018-Jun-15 22:31N 40°39' W 074°02'0 0.5
2018-Jun-15 22:01N 40°39' W 074°02'714.8
2018-Jun-15 21:30N 40°34' W 073°54'1 1.1
2018-Jun-15 21:00N 40°34' W 073°55'714.4
2018-Jun-15 20:31N 40°39' W 074°02'1 1.2
2018-Jun-15 20:01N 40°39' W 074°02'713.6
2018-Jun-15 19:29N 40°34' W 073°56'1 2.9
2018-Jun-15 18:59N 40°34' W 073°54'715.2
2018-Jun-15 18:30N 40°39' W 074°02'1 1.8
2018-Jun-15 18:00N 40°40' W 074°01'714.1
2018-Jun-15 17:29N 40°34' W 073°55'1 2.3
2018-Jun-15 17:00N 40°34' W 073°54'815.1
2018-Jun-15 16:31N 40°39' W 074°02'1 1.2
2018-Jun-15 16:01N 40°39' W 074°02'1014.9
2018-Jun-15 15:21N 40°35' W 073°50'512.6
2018-Jun-15 14:59N 40°34' W 073°56'714.5
2018-Jun-15 14:31N 40°39' W 074°02'1 1.6
2018-Jun-15 14:01N 40°40' W 074°01'714.0
2018-Jun-15 13:29N 40°34' W 073°56'2 3.1
2018-Jun-15 12:59N 40°34' W 073°54'815.5
2018-Jun-15 12:30N 40°39' W 074°02'1 1.1
2018-Jun-15 12:01N 40°39' W 074°02'713.9
2018-Jun-15 11:30N 40°34' W 073°56'3 5.1
2018-Jun-15 11:00N 40°35' W 073°53'816.2
2018-Jun-15 10:30N 40°39' W 074°02'1 1.9
2018-Jun-15 10:01N 40°40' W 074°01'713.9
2018-Jun-15 09:28N 40°34' W 073°55'3 5.9
2018-Jun-15 08:59N 40°35' W 073°52'918.7
2018-Jun-15 08:31N 40°39' W 074°02'4 8.3
2018-Jun-15 08:00N 40°42' W 073°58'0 0.0
2018-Jun-15 07:30N 40°42' W 073°58'  
Track history (hours):
 
Tides and Currents Weather Stations Pressure Air Temp Water Temp Dewpoint Dewpoint Depression Visibility Wind Speed Wind Dir Waves Ship Positions

Opportunity

Owner: HNY Ferry Fleet LLC, New York, NY. More information available from US FCC via Universal Licensing System and Coast Guard Vessel Documentation Center.

Last reported at 2018-Jun-25 02:03 UTC. Time now 2018-Jun-25 05:55 UTC.
Position N 40°42' W 073°58'.

Length 26 m; draft 2 m.

Type: Passenger vessel. MMSI: 367791540.

Date/timePositionNaut miles runAvg speedWind from/ knotsBaromVisibWave heightAir tempDewpointWater temp
2018-Jun-25 02:03N 40°42' W 073°58'0 0.1
2018-Jun-25 02:01N 40°42' W 073°58'1 2.9
2018-Jun-25 01:30N 40°42' W 074°00'916.2
2018-Jun-25 00:59N 40°34' W 073°58'610.4
2018-Jun-25 00:25N 40°35' W 073°50'921.1
2018-Jun-25 00:01N 40°35' W 074°01'612.2
2018-Jun-24 23:30N 40°41' W 074°01'1 2.3
2018-Jun-24 23:00N 40°42' W 074°00'917.3
2018-Jun-24 22:30N 40°34' W 073°57'6 8.9
2018-Jun-24 21:53N 40°35' W 073°50'822.4
2018-Jun-24 21:30N 40°35' W 074°01'612.9
2018-Jun-24 21:00N 40°41' W 074°01'1 2.8
2018-Jun-24 20:30N 40°42' W 074°00'916.6
2018-Jun-24 20:00N 40°34' W 073°58'610.3
2018-Jun-24 19:25N 40°35' W 073°50'921.1
2018-Jun-24 19:00N 40°35' W 074°01'713.4
2018-Jun-24 18:31N 40°42' W 074°00'1 0.9
2018-Jun-24 17:53N 40°42' W 074°00'820.7
2018-Jun-24 17:30N 40°34' W 073°59'5 7.2
2018-Jun-24 16:48N 40°35' W 073°52'723.3
2018-Jun-24 16:29N 40°35' W 074°02'612.0
2018-Jun-24 16:01N 40°41' W 074°01'1 2.4
2018-Jun-24 15:31N 40°42' W 074°00'10 7.5
2018-Jun-24 14:13N 40°35' W 073°52'524.4
2018-Jun-24 14:00N 40°34' W 073°59'816.7
2018-Jun-24 13:30N 40°42' W 074°00'1 0.1
2018-Jun-24 01:55N 40°42' W 073°58'2 3.7
2018-Jun-24 01:30N 40°42' W 074°00'915.5
2018-Jun-24 00:57N 40°34' W 073°57'4 6.0
2018-Jun-24 00:18N 40°35' W 073°52'722.9
2018-Jun-24 00:00N 40°35' W 074°01'713.7
2018-Jun-23 23:31N 40°41' W 074°01'1 1.6
2018-Jun-23 23:00N 40°42' W 074°00'915.7
2018-Jun-23 22:26N 40°34' W 073°56'3 4.4
2018-Jun-23 21:50N 40°35' W 073°52'722.2
2018-Jun-23 21:31N 40°35' W 074°02'612.2
2018-Jun-23 21:00N 40°41' W 074°01'1 2.0
2018-Jun-23 20:31N 40°42' W 074°00'916.4
2018-Jun-23 19:59N 40°34' W 073°57'4 6.0
2018-Jun-23 19:20N 40°35' W 073°52'722.0
2018-Jun-23 19:00N 40°36' W 074°02'713.4
2018-Jun-23 18:30N 40°42' W 074°00'0 0.4
2018-Jun-23 18:00N 40°42' W 074°00'917.6
2018-Jun-23 17:30N 40°34' W 073°56'3 4.7
2018-Jun-23 16:52N 40°35' W 073°52'719.5
2018-Jun-23 16:30N 40°35' W 074°02'713.7
2018-Jun-23 16:00N 40°41' W 074°02'1 2.4
2018-Jun-23 15:30N 40°40' W 074°03'815.5
2018-Jun-23 14:58N 40°34' W 073°56'5 7.9
2018-Jun-23 14:23N 40°35' W 073°50'512.8
2018-Jun-23 14:00N 40°34' W 073°56'917.6
2018-Jun-23 13:31N 40°42' W 074°02'2 4.9
2018-Jun-23 13:00N 40°42' W 073°58'0 0.0
2018-Jun-22 23:58N 40°42' W 073°58'1 3.2
2018-Jun-22 23:30N 40°42' W 074°00'915.0
2018-Jun-22 22:54N 40°34' W 073°55'2 3.9
2018-Jun-22 22:26N 40°34' W 073°53'818.7
2018-Jun-22 22:00N 40°37' W 074°03'4 8.7
2018-Jun-22 21:31N 40°41' W 074°01'815.9
2018-Jun-22 20:59N 40°34' W 073°55'3 5.6
2018-Jun-22 20:29N 40°35' W 073°52'918.0
2018-Jun-22 20:00N 40°37' W 074°03'4 8.3
2018-Jun-22 19:31N 40°41' W 074°01'816.1
2018-Jun-22 18:59N 40°34' W 073°54'2 3.2
2018-Jun-22 18:30N 40°35' W 073°53'817.0
2018-Jun-22 18:00N 40°38' W 074°03'5 9.3
2018-Jun-22 17:31N 40°42' W 074°00'1 2.9
2018-Jun-22 17:00N 40°42' W 073°58'0 0.0
2018-Jun-22 16:30N 40°42' W 073°58'2 3.1
2018-Jun-22 16:01N 40°42' W 074°00'2 3.0
2018-Jun-22 15:30N 40°42' W 073°58'0 0.0
2018-Jun-22 00:38N 40°42' W 073°58'0 1.1
2018-Jun-22 00:30N 40°42' W 073°58'3 6.1
2018-Jun-22 00:01N 40°40' W 074°01'814.8
2018-Jun-21 23:29N 40°34' W 073°56'1 2.9
2018-Jun-21 23:00N 40°34' W 073°54'714.8
2018-Jun-21 22:31N 40°39' W 074°02'0 0.4
2018-Jun-21 22:01N 40°39' W 074°02'713.7
2018-Jun-21 21:30N 40°34' W 073°55'1 1.3
2018-Jun-21 20:58N 40°34' W 073°56'714.5
2018-Jun-21 20:31N 40°39' W 074°02'1 1.3
2018-Jun-21 20:01N 40°39' W 074°01'714.1
2018-Jun-21 19:29N 40°34' W 073°55'1 1.1
2018-Jun-21 19:00N 40°34' W 073°55'714.1
2018-Jun-21 18:30N 40°39' W 074°02'1 1.7
2018-Jun-21 18:01N 40°40' W 074°01'814.5
2018-Jun-21 17:28N 40°34' W 073°54'1 2.2
2018-Jun-21 17:01N 40°34' W 073°55'714.1
2018-Jun-21 16:30N 40°39' W 074°02'0 0.2
2018-Jun-21 16:01N 40°39' W 074°02'713.7
2018-Jun-21 15:28N 40°34' W 073°54'1 1.1
2018-Jun-21 15:00N 40°34' W 073°54'815.2
2018-Jun-21 14:30N 40°39' W 074°02'1 1.7
2018-Jun-21 14:01N 40°40' W 074°01'713.4
2018-Jun-21 13:29N 40°34' W 073°56'2 3.2
2018-Jun-21 12:58N 40°34' W 073°54'715.9
2018-Jun-21 12:30N 40°39' W 074°02'1 1.6
2018-Jun-21 12:01N 40°40' W 074°02'813.1
2018-Jun-21 11:25N 40°34' W 073°54'1 1.3
2018-Jun-21 10:59N 40°34' W 073°54'815.8
2018-Jun-21 10:30N 40°39' W 074°02'1 2.3
2018-Jun-21 10:01N 40°40' W 074°01'813.7
2018-Jun-21 09:27N 40°34' W 073°55'1 2.9
2018-Jun-21 09:00N 40°34' W 073°53'817.1
2018-Jun-21 08:30N 40°40' W 074°01'3 5.7
2018-Jun-21 08:01N 40°42' W 073°58'0 0.0
2018-Jun-21 07:31N 40°42' W 073°58'0 0.0
2018-Jun-21 02:34N 40°42' W 073°58'0 0.1
2018-Jun-21 02:30N 40°42' W 073°58'2 3.3
2018-Jun-21 02:01N 40°42' W 074°01'1011.8
2018-Jun-21 01:08N 40°35' W 073°50'319.9
2018-Jun-21 00:59N 40°34' W 073°54'815.7
2018-Jun-21 00:31N 40°39' W 074°02'1 2.8
2018-Jun-21 00:01N 40°40' W 074°01'814.0
2018-Jun-20 23:28N 40°34' W 073°56'3 5.7
2018-Jun-20 23:00N 40°34' W 073°53'815.9
2018-Jun-20 22:30N 40°39' W 074°02'0 0.8
2018-Jun-20 22:01N 40°39' W 074°02'8 8.9
2018-Jun-20 21:05N 40°35' W 073°53'222.8
2018-Jun-20 21:00N 40°34' W 073°55'714.0
2018-Jun-20 20:30N 40°39' W 074°02'1 1.8
2018-Jun-20 20:00N 40°40' W 074°01'814.0
2018-Jun-20 19:28N 40°34' W 073°54'0 1.1
2018-Jun-20 19:00N 40°34' W 073°54'815.1
2018-Jun-20 18:30N 40°39' W 074°02'0 0.5
2018-Jun-20 18:00N 40°39' W 074°02'714.0
2018-Jun-20 17:30N 40°34' W 073°55'0 0.8
2018-Jun-20 16:58N 40°34' W 073°56'714.4
2018-Jun-20 16:30N 40°39' W 074°02'4 8.1
2018-Jun-20 16:01N 40°42' W 073°59'1 1.5
2018-Jun-20 15:30N 40°42' W 073°58'1 1.9
2018-Jun-20 15:01N 40°42' W 073°60'3 5.9
2018-Jun-20 14:30N 40°45' W 073°57'1 1.3
2018-Jun-20 14:00N 40°45' W 073°57'4 8.3
2018-Jun-20 13:30N 40°42' W 074°00'4 7.1
2018-Jun-20 13:00N 40°45' W 073°57'0 0.9
2018-Jun-20 12:30N 40°45' W 073°57'4 8.0
2018-Jun-20 12:00N 40°42' W 074°00'4 8.0
2018-Jun-20 11:30N 40°45' W 073°57'3 6.9
2018-Jun-20 11:00N 40°42' W 073°58'0 0.0
2018-Jun-20 10:30N 40°42' W 073°58'0 0.8
2018-Jun-20 10:01N 40°42' W 073°59'3 5.6
2018-Jun-20 09:30N 40°43' W 074°02'0 0.0
2018-Jun-20 09:00N 40°43' W 074°02'0 0.1
2018-Jun-20 08:30N 40°43' W 074°03'1 1.0
2018-Jun-20 08:01N 40°43' W 074°02'0 0.2
2018-Jun-20 07:31N 40°43' W 074°02'3 5.2
2018-Jun-20 07:01N 40°42' W 073°58'0 0.0
2018-Jun-20 02:00N 40°42' W 073°58'0 0.3
2018-Jun-20 01:30N 40°42' W 073°58'4 7.5
2018-Jun-20 01:01N 40°39' W 074°01'813.1
2018-Jun-20 00:26N 40°34' W 073°54'1 2.6
2018-Jun-20 00:00N 40°35' W 073°53'816.2
2018-Jun-19 23:30N 40°39' W 074°02'1 1.6
2018-Jun-19 23:00N 40°40' W 074°01'813.6
2018-Jun-19 22:27N 40°34' W 073°54'1 1.3
2018-Jun-19 21:59N 40°34' W 073°55'714.6
2018-Jun-19 21:31N 40°39' W 074°02'1 2.8
2018-Jun-19 21:01N 40°40' W 074°01'8 7.8
2018-Jun-19 19:58N 40°34' W 073°54'716.0
2018-Jun-19 19:30N 40°39' W 074°02'0 0.6
2018-Jun-19 19:00N 40°39' W 074°02'814.1
2018-Jun-19 18:28N 40°34' W 073°54'0 0.9
2018-Jun-19 17:58N 40°34' W 073°54'816.1
2018-Jun-19 17:30N 40°39' W 074°02'1 2.7
2018-Jun-19 17:01N 40°40' W 074°01'814.1
2018-Jun-19 16:27N 40°34' W 073°55'0 0.1
2018-Jun-19 15:59N 40°34' W 073°55'714.9
2018-Jun-19 15:30N 40°39' W 074°02'1 2.9
2018-Jun-19 15:01N 40°40' W 074°01'814.6
2018-Jun-19 14:28N 40°34' W 073°55'1 1.6
2018-Jun-19 13:59N 40°34' W 073°54'715.6
2018-Jun-19 13:30N 40°39' W 074°02'1 2.1
2018-Jun-19 13:00N 40°40' W 074°01'714.0
2018-Jun-19 12:28N 40°34' W 073°55'1 1.8
2018-Jun-19 12:00N 40°34' W 073°54'815.4
2018-Jun-19 11:30N 40°39' W 074°02'1 1.3
2018-Jun-19 11:00N 40°39' W 074°01'813.5
2018-Jun-19 10:26N 40°34' W 073°54'0 0.1
2018-Jun-19 09:58N 40°34' W 073°54'817.2
2018-Jun-19 09:30N 40°40' W 074°01'3 6.1
2018-Jun-19 09:00N 40°42' W 073°58'0 0.0
2018-Jun-19 02:10N 40°42' W 073°58'1 3.2
2018-Jun-19 02:00N 40°42' W 073°59'916.6
2018-Jun-19 01:29N 40°34' W 073°57'3 5.8
2018-Jun-19 00:59N 40°34' W 073°54'815.7
2018-Jun-19 00:30N 40°39' W 074°02'1 1.7
2018-Jun-19 00:01N 40°40' W 074°01'8 8.8
2018-Jun-18 23:02N 40°35' W 073°52'124.6
2018-Jun-18 23:00N 40°34' W 073°54'815.3
2018-Jun-18 22:30N 40°39' W 074°02'1 2.0
2018-Jun-18 22:01N 40°40' W 074°01'813.4
2018-Jun-18 21:26N 40°34' W 073°54'1 1.2
2018-Jun-18 20:59N 40°34' W 073°54'815.1
2018-Jun-18 20:29N 40°39' W 074°02'1 3.1
2018-Jun-18 20:01N 40°40' W 074°01'913.9
2018-Jun-18 19:23N 40°34' W 073°53'1 3.2
2018-Jun-18 19:00N 40°34' W 073°54'714.5
2018-Jun-18 18:31N 40°39' W 074°02'1 2.9
2018-Jun-18 18:01N 40°40' W 074°01'714.4
2018-Jun-18 17:30N 40°34' W 073°56'3 5.6
2018-Jun-18 17:00N 40°34' W 073°53'816.0
2018-Jun-18 16:30N 40°39' W 074°02'4 7.2
2018-Jun-18 16:00N 40°42' W 074°00'2 0.3
2018-Jun-18 11:03N 40°42' W 073°58'0 1.1
2018-Jun-18 11:00N 40°42' W 073°58'0 0.0
2018-Jun-18 01:26N 40°42' W 073°58'0 0.3
2018-Jun-18 01:00N 40°42' W 073°58'3 6.5
2018-Jun-18 00:31N 40°40' W 074°01'9 8.4
2018-Jun-17 23:27N 40°35' W 073°52'919.6
2018-Jun-17 23:01N 40°38' W 074°02'4 8.3
2018-Jun-17 22:31N 40°42' W 074°00'2 4.4
2018-Jun-17 22:01N 40°40' W 074°01'815.9
2018-Jun-17 21:30N 40°34' W 073°54'1 2.5
2018-Jun-17 21:01N 40°35' W 073°52'816.6
2018-Jun-17 20:31N 40°39' W 074°02'4 6.7
2018-Jun-17 19:59N 40°42' W 074°00'3 6.3
2018-Jun-17 19:30N 40°39' W 074°02'7 5.5
2018-Jun-17 18:19N 40°34' W 073°57'620.0
2018-Jun-17 18:00N 40°38' W 074°02'4 5.5
2018-Jun-17 17:15N 40°42' W 074°00'2 9.0
2018-Jun-17 17:01N 40°40' W 074°01'6 5.0
2018-Jun-17 15:48N 40°34' W 074°00'514.5
2018-Jun-17 15:28N 40°39' W 074°02'4 6.3
2018-Jun-17 14:54N 40°42' W 074°00'1 1.3
2018-Jun-17 13:54N 40°42' W 073°58'0 0.0
2018-Jun-17 13:27N 40°42' W 073°58'0 0.0
2018-Jun-17 12:58N 40°42' W 073°58'0 0.0
2018-Jun-17 12:15N 40°42' W 073°58'0 0.0
2018-Jun-17 12:00N 40°42' W 073°58'0 0.0
2018-Jun-17 11:19N 40°42' W 073°58'0 0.0
2018-Jun-17 11:00N 40°42' W 073°58'0 0.0
2018-Jun-17 10:30N 40°42' W 073°58'0 0.0
2018-Jun-17 10:00N 40°42' W 073°58'0 0.0
2018-Jun-17 09:30N 40°42' W 073°58'0 0.0
2018-Jun-17 09:00N 40°42' W 073°58'0 0.0
2018-Jun-17 08:30N 40°42' W 073°58'0 0.0
2018-Jun-17 01:49N 40°42' W 073°58'0 0.5
2018-Jun-17 01:30N 40°42' W 073°58'4 8.6
2018-Jun-17 01:00N 40°39' W 074°02'8 6.2
2018-Jun-16 23:40N 40°35' W 073°52'426.1
2018-Jun-16 23:30N 40°34' W 073°58'817.1
2018-Jun-16 23:00N 40°42' W 074°00'4 7.1
2018-Jun-16 22:30N 40°39' W 074°02'1011.4
2018-Jun-16 21:40N 40°35' W 073°50'0 0.0
2018-Jun-16 21:30N 40°35' W 073°50'611.8
2018-Jun-16 21:00N 40°34' W 073°57'917.6
2018-Jun-16 20:30N 40°42' W 074°00'4 7.1
2018-Jun-16 20:00N 40°39' W 074°02'8 6.2
2018-Jun-16 18:41N 40°35' W 073°52'423.5
2018-Jun-16 18:30N 40°34' W 073°58'917.2
2018-Jun-16 18:00N 40°42' W 074°00'4 7.1
2018-Jun-16 17:30N 40°39' W 074°02'712.6
2018-Jun-16 16:58N 40°34' W 073°55'2 2.9
2018-Jun-16 16:08N 40°35' W 073°52'322.6
2018-Jun-16 16:00N 40°34' W 073°56'918.3
2018-Jun-16 15:30N 40°42' W 074°00'4 7.0
2018-Jun-16 15:00N 40°39' W 074°02'8 6.3
2018-Jun-16 13:44N 40°35' W 073°53'624.7
2018-Jun-16 13:29N 40°34' W 074°00'714.8
2018-Jun-16 13:01N 40°41' W 074°01'3 5.0
2018-Jun-16 12:31N 40°39' W 074°02'713.8
2018-Jun-16 12:00N 40°34' W 073°55'4 7.0
2018-Jun-16 11:28N 40°35' W 073°50'818.5
2018-Jun-16 11:00N 40°34' W 074°01'815.8
2018-Jun-16 10:31N 40°42' W 074°00'1 3.0
2018-Jun-16 10:00N 40°42' W 073°58'0 0.0
2018-Jun-16 00:35N 40°42' W 073°58'0 0.1
2018-Jun-16 00:30N 40°42' W 073°58'3 6.0
2018-Jun-16 00:00N 40°40' W 074°01'814.9
2018-Jun-15 23:30N 40°34' W 073°56'2 3.3
2018-Jun-15 23:00N 40°34' W 073°54'815.3
2018-Jun-15 22:31N 40°39' W 074°02'0 0.5
2018-Jun-15 22:01N 40°39' W 074°02'714.8
2018-Jun-15 21:30N 40°34' W 073°54'1 1.1
2018-Jun-15 21:00N 40°34' W 073°55'714.4
2018-Jun-15 20:31N 40°39' W 074°02'1 1.2
2018-Jun-15 20:01N 40°39' W 074°02'713.6
2018-Jun-15 19:29N 40°34' W 073°56'1 2.9
2018-Jun-15 18:59N 40°34' W 073°54'715.2
2018-Jun-15 18:30N 40°39' W 074°02'1 1.8
2018-Jun-15 18:00N 40°40' W 074°01'714.1
2018-Jun-15 17:29N 40°34' W 073°55'1 2.3
2018-Jun-15 17:00N 40°34' W 073°54'815.1
2018-Jun-15 16:31N 40°39' W 074°02'1 1.2
2018-Jun-15 16:01N 40°39' W 074°02'1014.9
2018-Jun-15 15:21N 40°35' W 073°50'512.6
2018-Jun-15 14:59N 40°34' W 073°56'714.5
2018-Jun-15 14:31N 40°39' W 074°02'1 1.6
2018-Jun-15 14:01N 40°40' W 074°01'714.0
2018-Jun-15 13:29N 40°34' W 073°56'2 3.1
2018-Jun-15 12:59N 40°34' W 073°54'815.5
2018-Jun-15 12:30N 40°39' W 074°02'1 1.1
2018-Jun-15 12:01N 40°39' W 074°02'713.9
2018-Jun-15 11:30N 40°34' W 073°56'3 5.1
2018-Jun-15 11:00N 40°35' W 073°53'816.2
2018-Jun-15 10:30N 40°39' W 074°02'1 1.9
2018-Jun-15 10:01N 40°40' W 074°01'713.9
2018-Jun-15 09:28N 40°34' W 073°55'3 5.9
2018-Jun-15 08:59N 40°35' W 073°52'918.7
2018-Jun-15 08:31N 40°39' W 074°02'4 8.3
2018-Jun-15 08:00N 40°42' W 073°58'0 0.0
2018-Jun-15 07:30N 40°42' W 073°58'  

Dump ship's entire track history